Time;durP1;ratioP1;P1;durP2;ratioP2;P2;SDS_P1;SDS_P2;PMS_P1;PMS_P2;Temp;Humidity;BMP_temperature;BMP_pressure;BME280_temperature;BME280_humidity;BME280_pressure;Samples;Min_cycle;Max_cycle;Signal;HPM_P1;HPM_P2
2022/06/20 00:00:30;;;;;;;;;;;;;;;24.09;29.08;99519.91;5057423;28;20377;-69
2022/06/20 00:02:56;;;;;;;;;;;;;;;24.09;29.08;99519.09;5075473;28;19917;-69
2022/06/20 00:05:23;;;;;;;;;;;;;;;24.09;29.11;99522.63;5075058;28;20286;-70
2022/06/20 00:07:48;;;;;;;;;;;;;;;24.10;29.04;99516.06;5075099;28;19917;-70
2022/06/20 00:10:14;;;;;;;;;;;;;;;24.08;29.33;99523.75;5075329;28;19916;-69
2022/06/20 00:12:39;;;;;;;;;;;;;;;24.08;29.20;99523.75;5075394;28;19989;-69
2022/06/20 00:15:05;;;;;;;;;;;;;;;24.08;29.32;99521.03;5075184;28;20270;-69
2022/06/20 00:17:30;;;;;;;;;;;;;;;24.10;29.21;99529.72;5074971;28;20022;-69
2022/06/20 00:19:56;;;;;;;;;;;;;;;24.09;29.48;99530.81;5075137;28;19916;-69
2022/06/20 00:22:21;;;;;;;;;;;;;;;24.08;29.50;99534.69;5075066;28;20282;-69
2022/06/20 00:24:46;;;;;;;;;;;;;;;24.09;29.28;99536.28;5056917;28;19920;-69
2022/06/20 00:27:11;;;;;;;;;;;;;;;24.10;29.40;99531.66;5074635;28;19916;-69
2022/06/20 00:29:37;;;;;;;;;;;;;;;24.09;29.83;99536.28;5074845;28;19917;-69
2022/06/20 00:32:03;;;;;;;;;;;;;;;24.10;29.47;99537.91;5056715;28;20400;-69
2022/06/20 00:34:28;;;;;;;;;;;;;;;24.08;29.55;99545.59;5073993;28;19926;-69
2022/06/20 00:36:53;;;;;;;;;;;;;;;24.08;29.74;99545.59;5074563;28;19917;-69
2022/06/20 00:39:19;;;;;;;;;;;;;;;24.07;29.63;99549.41;5092323;28;19970;-69
2022/06/20 00:41:44;;;;;;;;;;;;;;;24.08;29.76;99547.53;5076527;28;20378;-71
2022/06/20 00:44:13;;;;;;;;;;;;;;;24.08;29.91;99539.34;5094490;28;19920;-70
2022/06/20 00:46:45;;;;;;;;;;;;;;;24.08;29.89;99544.78;5076618;28;19943;-69
2022/06/20 00:49:22;;;;;;;;;;;;;;;24.09;29.82;99552.66;5094784;28;19917;-69
2022/06/20 00:51:50;;;;;;;;;;;;;;;24.09;29.65;99557.31;5094376;28;19920;-69
2022/06/20 00:54:22;;;;;;;;;;;;;;;24.08;29.97;99552.97;5094782;28;19916;-69
2022/06/20 00:57:13;;;;;;;;;;;;;;;24.09;29.99;99551.84;5094373;28;20010;-69
2022/06/20 00:59:39;;;;;;;;;;;;;;;24.09;30.08;99552.66;5090160;28;19920;-70
2022/06/20 01:02:06;;;;;;;;;;;;;;;24.09;30.00;99555.38;5076553;28;20011;-71
2022/06/20 01:04:42;;;;;;;;;;;;;;;24.11;29.90;99555.91;5094559;28;20015;-70
2022/06/20 01:07:10;;;;;;;;;;;;;;;24.08;30.13;99553.78;5094517;28;19922;-70
2022/06/20 01:09:37;;;;;;;;;;;;;;;24.09;30.21;99547.19;5056417;28;20420;-70
2022/06/20 01:12:03;;;;;;;;;;;;;;;24.09;30.01;99547.19;5089710;28;20293;-70
2022/06/20 01:14:35;;;;;;;;;;;;;;;24.10;30.22;99545.31;5073946;28;19977;-71
2022/06/20 01:17:01;;;;;;;;;;;;;;;24.11;30.08;99546.91;5074134;28;19924;-70
2022/06/20 01:19:27;;;;;;;;;;;;;;;24.09;30.28;99547.19;5089852;28;19916;-69
2022/06/20 01:21:52;;;;;;;;;;;;;;;24.10;30.27;99550.75;5074294;28;19999;-69
2022/06/20 01:24:27;;;;;;;;;;;;;;;24.10;30.31;99543.38;5073743;28;19979;-69
2022/06/20 01:26:55;;;;;;;;;;;;;;;24.10;30.46;99542.56;5089430;28;20363;-69
2022/06/20 01:29:21;;;;;;;;;;;;;;;24.09;30.58;99544.47;5073715;28;19917;-69
2022/06/20 01:31:54;;;;;;;;;;;;;;;24.11;30.42;99546.91;5089566;28;19916;-70
2022/06/20 01:34:19;;;;;;;;;;;;;;;24.08;30.62;99544.78;5089291;28;20345;-70
2022/06/20 01:39:30;;;;;;;;;;;;;;;24.07;30.59;99532.25;5086831;28;19928;-70
2022/06/20 01:44:45;;;;;;;;;;;;;;;24.09;30.71;99530.03;5075090;28;19961;-71
2022/06/20 01:47:10;;;;;;;;;;;;;;;24.09;30.78;99539.00;5080249;28;20401;-70
2022/06/20 01:49:36;;;;;;;;;;;;;;;24.09;30.75;99544.47;5080484;28;19920;-70
2022/06/20 01:52:03;;;;;;;;;;;;;;;24.09;30.67;99540.94;5080502;28;20325;-70
2022/06/20 01:54:30;;;;;;;;;;;;;;;24.10;30.74;99542.56;5096388;28;19920;-69
2022/06/20 01:56:55;;;;;;;;;;;;;;;24.10;30.68;99548.03;5080179;28;19917;-69
2022/06/20 01:59:28;;;;;;;;;;;;;;;24.10;30.76;99548.81;5095862;28;19923;-69
2022/06/20 02:01:53;;;;;;;;;;;;;;;24.09;30.75;99549.94;5080083;28;20358;-69
2022/06/20 02:04:19;;;;;;;;;;;;;;;24.09;30.97;99558.13;5080284;28;19928;-69
2022/06/20 02:06:45;;;;;;;;;;;;;;;24.08;31.05;99556.50;5095934;28;20401;-69
2022/06/20 02:09:11;;;;;;;;;;;;;;;24.09;31.05;99552.66;5095981;28;19955;-69
2022/06/20 02:11:40;;;;;;;;;;;;;;;24.10;31.01;99553.50;5100639;28;19920;-70
2022/06/20 02:14:16;;;;;;;;;;;;;;;24.11;31.07;99555.09;5100544;28;19923;-69
2022/06/20 02:16:43;;;;;;;;;;;;;;;24.11;31.02;99549.63;5100314;28;20010;-69
2022/06/20 02:19:09;;;;;;;;;;;;;;;24.11;31.00;99550.47;5082459;28;19959;-69
2022/06/20 02:21:34;;;;;;;;;;;;;;;24.10;31.14;99550.75;5082635;28;19919;-69
2022/06/20 02:24:01;;;;;;;;;;;;;;;24.08;31.06;99553.78;5100340;28;20409;-69
2022/06/20 02:26:27;;;;;;;;;;;;;;;24.08;31.38;99537.41;5082234;28;19981;-69
2022/06/20 02:28:53;;;;;;;;;;;;;;;24.08;31.18;99537.41;5082317;28;20326;-69
2022/06/20 02:31:18;;;;;;;;;;;;;;;24.09;31.08;99541.72;5082631;28;20468;-69
2022/06/20 02:33:44;;;;;;;;;;;;;;;24.10;31.22;99540.63;5100132;28;20000;-69
2022/06/20 02:36:09;;;;;;;;;;;;;;;24.12;31.15;99541.16;5100446;28;20121;-69
2022/06/20 02:38:35;;;;;;;;;;;;;;;24.10;31.48;99548.81;5099716;28;19927;-69
2022/06/20 02:41:00;;;;;;;;;;;;;;;24.10;31.36;99542.56;5100035;28;19962;-69
2022/06/20 02:43:25;;;;;;;;;;;;;;;24.10;31.42;99548.81;5100026;28;19916;-70
2022/06/20 02:45:51;;;;;;;;;;;;;;;24.09;31.48;99547.19;5100455;28;19916;-70
2022/06/20 02:48:17;;;;;;;;;;;;;;;24.08;31.32;99552.97;5081896;28;19922;-70
2022/06/20 02:50:44;;;;;;;;;;;;;;;24.08;31.43;99552.97;5100244;28;19994;-69
2022/06/20 02:53:14;;;;;;;;;;;;;;;24.08;31.47;99556.50;5099987;28;19999;-69
2022/06/20 02:55:39;;;;;;;;;;;;;;;24.08;31.60;99561.97;5081929;28;19920;-69
2022/06/20 02:58:06;;;;;;;;;;;;;;;24.08;31.80;99567.44;5096209;28;20007;-69
2022/06/20 03:00:35;;;;;;;;;;;;;;;24.07;31.57;99560.34;5079004;28;19952;-69
2022/06/20 03:03:01;;;;;;;;;;;;;;;24.10;31.68;99565.22;5078463;28;19923;-69
2022/06/20 03:05:27;;;;;;;;;;;;;;;24.14;31.64;99566.22;5096707;28;19933;-69
2022/06/20 03:07:52;;;;;;;;;;;;;;;24.14;31.56;99571.69;5096834;28;19916;-71
2022/06/20 03:10:23;;;;;;;;;;;;;;;24.21;31.46;99576.75;5078753;28;20278;-70
2022/06/20 03:12:48;;;;;;;;;;;;;;;24.25;31.69;99579.69;5078757;28;19920;-70
2022/06/20 03:15:14;;;;;;;;;;;;;;;24.32;31.62;99583.69;5096714;28;20374;-70
2022/06/20 03:17:40;;;;;;;;;;;;;;;24.37;31.71;99591.00;5096749;28;19916;-70
2022/06/20 03:20:06;;;;;;;;;;;;;;;24.43;31.63;99594.44;5078548;28;20339;-70
2022/06/20 03:22:33;;;;;;;;;;;;;;;24.48;31.69;99597.88;5078738;28;20366;-70
2022/06/20 03:24:58;;;;;;;;;;;;;;;24.55;31.68;99592.88;5096617;28;19920;-70
2022/06/20 03:27:26;;;;;;;;;;;;;;;24.59;31.50;99598.53;5078111;28;20447;-70
2022/06/20 03:29:54;;;;;;;;;;;;;;;24.63;31.62;99596.84;5097174;28;20002;-70
2022/06/20 03:32:20;;;;;;;;;;;;;;;24.67;31.60;99599.78;5078697;28;19963;-70
2022/06/20 03:34:45;;;;;;;;;;;;;;;24.70;31.67;99607.38;5096495;28;19923;-70
2022/06/20 03:37:10;;;;;;;;;;;;;;;24.72;31.67;99607.88;5078391;28;19916;-70
2022/06/20 03:39:36;;;;;;;;;;;;;;;24.73;31.72;99610.31;5077635;28;20378;-70
2022/06/20 03:42:02;;;;;;;;;;;;;;;24.75;31.99;99612.75;5096545;28;19973;-70
2022/06/20 03:44:30;;;;;;;;;;;;;;;24.78;32.02;99606.66;5095826;28;19916;-71
2022/06/20 03:46:57;;;;;;;;;;;;;;;24.82;31.74;99620.53;5077808;28;19916;-71
2022/06/20 03:49:24;;;;;;;;;;;;;;;24.83;31.96;99617.50;5095916;28;19916;-71
2022/06/20 03:51:52;;;;;;;;;;;;;;;24.84;31.83;99612.88;5077544;28;19916;-71
2022/06/20 03:54:32;;;;;;;;;;;;;;;24.85;32.01;99623.50;5077475;28;20378;-71
2022/06/20 03:57:08;;;;;;;;;;;;;;;24.86;32.02;99621.56;5095435;28;19927;-71
2022/06/20 03:59:35;;;;;;;;;;;;;;;24.90;32.10;99625.31;5077755;28;19916;-71
2022/06/20 04:02:06;;;;;;;;;;;;;;;24.92;31.91;99623.06;5077832;28;19923;-71
2022/06/20 04:04:33;;;;;;;;;;;;;;;24.92;32.04;99615.72;5077281;28;19916;-71
2022/06/20 04:07:03;;;;;;;;;;;;;;;24.92;32.03;99621.19;5077675;28;19970;-70
2022/06/20 04:12:34;;;;;;;;;;;;;;;25.01;32.13;99625.91;5095862;28;20014;-70
2022/06/20 04:15:03;;;;;;;;;;;;;;;25.02;32.19;99633.81;5077359;28;20381;-70
2022/06/20 04:20:16;;;;;;;;;;;;;;;25.04;32.15;99630.78;5095779;28;20001;-70
2022/06/20 04:22:41;;;;;;;;;;;;;;;25.07;32.13;99624.72;5078049;28;20058;-70
2022/06/20 04:25:22;;;;;;;;;;;;;;;25.11;32.09;99620.25;5078785;28;19947;-70
2022/06/20 04:27:52;;;;;;;;;;;;;;;25.08;32.05;99620.88;5079517;28;20001;-70
2022/06/20 04:30:22;;;;;;;;;;;;;;;25.07;32.19;99624.72;5081242;28;19916;-73
2022/06/20 04:32:47;;;;;;;;;;;;;;;25.11;32.10;99628.44;5091079;28;19920;-73
2022/06/20 04:35:17;;;;;;;;;;;;;;;25.19;31.93;99627.75;5101614;28;19923;-73
2022/06/20 04:37:44;;;;;;;;;;;;;;;25.20;31.81;99618.44;5098606;28;19954;-73
2022/06/20 04:40:11;;;;;;;;;;;;;;;25.17;32.20;99624.53;5079109;28;19931;-73
2022/06/20 04:42:39;;;;;;;;;;;;;;;25.15;31.90;99626.75;5079389;28;19920;-74
2022/06/20 04:45:09;;;;;;;;;;;;;;;25.22;32.24;99627.16;5095768;28;19939;-72
2022/06/20 04:47:42;;;;;;;;;;;;;;;25.23;32.03;99637.00;5076958;28;19923;-73
2022/06/20 04:50:09;;;;;;;;;;;;;;;25.23;32.08;99628.78;5094581;28;19977;-73
2022/06/20 04:52:34;;;;;;;;;;;;;;;25.26;31.93;99630.13;5076640;28;20006;-73
2022/06/20 04:55:00;;;;;;;;;;;;;;;25.25;32.17;99634.78;5076376;28;20326;-73
2022/06/20 04:57:25;;;;;;;;;;;;;;;25.28;32.09;99634.19;5094740;28;19923;-73
2022/06/20 04:59:51;;;;;;;;;;;;;;;25.31;32.16;99640.97;5076619;28;19916;-71
2022/06/20 05:02:18;;;;;;;;;;;;;;;25.34;32.02;99636.81;5076096;28;19939;-71
2022/06/20 05:04:43;;;;;;;;;;;;;;;25.35;32.08;99649.34;5076158;28;20014;-71
2022/06/20 05:07:20;;;;;;;;;;;;;;;25.33;31.96;99641.47;5094271;28;20330;-71
2022/06/20 05:09:57;;;;;;;;;;;;;;;25.34;32.19;99650.50;5075859;28;20219;-70
2022/06/20 05:12:25;;;;;;;;;;;;;;;25.33;32.20;99643.38;5075758;28;19916;-70
2022/06/20 05:14:53;;;;;;;;;;;;;;;25.34;32.26;99643.09;5076056;28;19917;-70
2022/06/20 05:17:19;;;;;;;;;;;;;;;25.38;32.26;99651.50;5094322;28;20346;-70
2022/06/20 05:19:45;;;;;;;;;;;;;;;25.39;32.47;99650.34;5075652;28;19923;-70
2022/06/20 05:22:16;;;;;;;;;;;;;;;25.39;32.25;99655.81;5075684;28;20003;-70
2022/06/20 05:24:43;;;;;;;;;;;;;;;25.43;32.22;99654.13;5094081;28;19916;-69
2022/06/20 05:27:15;;;;;;;;;;;;;;;25.43;32.24;99659.59;5093690;28;20025;-70
2022/06/20 05:29:40;;;;;;;;;;;;;;;25.44;32.28;99644.78;5094485;28;19962;-71
2022/06/20 05:32:06;;;;;;;;;;;;;;;25.44;31.98;99661.19;5075751;28;20294;-71
2022/06/20 05:34:38;;;;;;;;;;;;;;;25.44;32.36;99655.72;5076227;28;19959;-69
2022/06/20 05:37:06;;;;;;;;;;;;;;;25.46;31.90;99659.78;5094270;28;19950;-72
2022/06/20 05:39:36;;;;;;;;;;;;;;;25.46;32.15;99659.78;5093607;28;19943;-73
2022/06/20 05:42:02;;;;;;;;;;;;;;;25.35;32.26;99658.38;5094028;28;19962;-73
2022/06/20 05:44:27;;;;;;;;;;;;;;;25.37;32.17;99661.63;5075674;28;19966;-72
2022/06/20 05:47:16;;;;;;;;;;;;;;;25.42;32.06;99667.00;5075465;28;19947;-72
2022/06/20 05:49:46;;;;;;;;;;;;;;;25.46;32.25;99672.66;5085437;28;19916;-73
2022/06/20 05:52:12;;;;;;;;;;;;;;;25.52;31.78;99662.44;5093783;28;19916;-73
2022/06/20 05:54:38;;;;;;;;;;;;;;;25.55;31.79;99664.56;5075622;28;20293;-73
2022/06/20 05:57:08;;;;;;;;;;;;;;;25.52;31.80;99663.22;5094225;28;19924;-73
2022/06/20 05:59:36;;;;;;;;;;;;;;;25.52;32.07;99667.91;5076160;28;19923;-73
2022/06/20 06:02:04;;;;;;;;;;;;;;;25.55;31.87;99673.56;5075937;28;19917;-73
2022/06/20 06:04:33;;;;;;;;;;;;;;;25.57;31.96;99668.59;5075255;28;19927;-73
2022/06/20 06:07:18;;;;;;;;;;;;;;;25.58;31.93;99670.22;5075589;28;20006;-73
2022/06/20 06:09:43;;;;;;;;;;;;;;;25.61;31.88;99677.00;5075676;28;19928;-73
2022/06/20 06:12:13;;;;;;;;;;;;;;;25.62;31.77;99676.69;5093624;28;19992;-73
2022/06/20 06:14:43;;;;;;;;;;;;;;;25.64;32.01;99676.41;5076030;28;19959;-73
2022/06/20 06:17:11;;;;;;;;;;;;;;;25.61;32.19;99677.81;5075626;28;20005;-73
2022/06/20 06:19:44;;;;;;;;;;;;;;;25.66;31.96;99685.09;5075491;28;19920;-74
2022/06/20 06:22:31;;;;;;;;;;;;;;;25.66;31.80;99679.63;5075702;28;19977;-73
2022/06/20 06:24:56;;;;;;;;;;;;;;;25.66;31.93;99688.66;5093417;28;19943;-74
2022/06/20 06:27:22;;;;;;;;;;;;;;;25.67;31.98;99695.75;5093488;28;20239;-73
2022/06/20 06:29:51;;;;;;;;;;;;;;;25.70;31.93;99697.06;5093240;28;19916;-73
2022/06/20 06:32:28;;;;;;;;;;;;;;;25.70;32.01;99697.06;5077130;28;19927;-73
2022/06/20 06:34:57;;;;;;;;;;;;;;;25.71;32.08;99697.88;5079314;28;19916;-71
2022/06/20 06:37:23;;;;;;;;;;;;;;;25.73;31.90;99706.59;5079244;28;19988;-72
2022/06/20 06:40:01;;;;;;;;;;;;;;;25.76;31.92;99704.03;5078641;28;19939;-69
2022/06/20 06:42:26;;;;;;;;;;;;;;;25.79;31.92;99711.66;5078519;28;20387;-70
2022/06/20 06:44:53;;;;;;;;;;;;;;;25.78;31.81;99706.47;5079256;28;19988;-71
2022/06/20 06:47:38;;;;;;;;;;;;;;;25.77;31.98;99713.09;5097453;28;19935;-71
2022/06/20 06:50:21;;;;;;;;;;;;;;;25.79;31.83;99711.66;5096413;28;19923;-71
2022/06/20 06:52:51;;;;;;;;;;;;;;;25.83;31.68;99722.78;5096492;28;20369;-71
2022/06/20 06:55:17;;;;;;;;;;;;;;;25.84;31.76;99718.94;5078637;28;19916;-71
2022/06/20 06:57:44;;;;;;;;;;;;;;;25.82;31.94;99718.44;5078442;28;19924;-70
2022/06/20 07:00:22;;;;;;;;;;;;;;;25.82;31.77;99721.19;5096578;28;20020;-70
2022/06/20 07:02:49;;;;;;;;;;;;;;;25.85;31.66;99734.25;5096406;28;20015;-70
2022/06/20 07:05:16;;;;;;;;;;;;;;;25.82;31.92;99732.13;5078454;28;19943;-70
2022/06/20 07:07:43;;;;;;;;;;;;;;;25.88;31.60;99735.56;5078207;28;20018;-70
2022/06/20 07:10:12;;;;;;;;;;;;;;;25.92;31.47;99731.91;5096839;28;20015;-70
2022/06/20 07:12:42;;;;;;;;;;;;;;;25.95;31.32;99741.47;5078305;28;19923;-70
2022/06/20 07:15:13;;;;;;;;;;;;;;;25.94;31.39;99740.66;5096608;28;19923;-70
2022/06/20 07:17:57;;;;;;;;;;;;;;;25.95;31.70;99741.47;5078715;28;19956;-70
2022/06/20 07:20:29;;;;;;;;;;;;;;;25.94;31.33;99743.41;5096203;28;19999;-71
2022/06/20 07:22:54;;;;;;;;;;;;;;;25.97;31.65;99744.69;5096247;28;19916;-71
2022/06/20 07:25:22;;;;;;;;;;;;;;;25.95;31.38;99739.53;5077809;28;19923;-72
2022/06/20 07:27:50;;;;;;;;;;;;;;;25.96;31.72;99743.09;5077433;28;19923;-72
2022/06/20 07:30:16;;;;;;;;;;;;;;;25.95;31.62;99742.28;5078310;28;19916;-71
2022/06/20 07:32:49;;;;;;;;;;;;;;;26.00;31.58;99744.91;5096383;28;19916;-71
2022/06/20 07:35:15;;;;;;;;;;;;;;;26.00;31.25;99747.63;5077915;28;19920;-72
2022/06/20 07:38:03;;;;;;;;;;;;;;;25.98;31.49;99752.63;5095690;28;19936;-70
2022/06/20 07:40:40;;;;;;;;;;;;;;;26.02;31.40;99753.59;5095400;28;19916;-70
2022/06/20 07:43:10;;;;;;;;;;;;;;;26.00;31.35;99752.31;5078086;28;19916;-70
2022/06/20 07:45:39;;;;;;;;;;;;;;;26.04;31.42;99761.53;5095742;28;19916;-68
2022/06/20 07:48:07;;;;;;;;;;;;;;;26.03;31.39;99759.91;5077667;28;20374;-68
2022/06/20 07:51:02;;;;;;;;;;;;;;;25.99;31.43;99765.19;5077923;28;19923;-71
2022/06/20 07:53:30;;;;;;;;;;;;;;;25.99;31.15;99767.94;5035302;28;19953;-71
2022/06/20 07:55:57;;;;;;;;;;;;;;;26.08;30.99;99769.94;5035417;28;19917;-72
2022/06/20 07:58:24;;;;;;;;;;;;;;;26.08;31.08;99767.19;5017345;28;19924;-71
2022/06/20 08:00:49;;;;;;;;;;;;;;;26.08;31.32;99773.50;5033266;28;19928;-72
2022/06/20 08:03:33;;;;;;;;;;;;;;;26.09;31.10;99764.16;5034732;28;19921;-76
2022/06/20 08:06:05;;;;;;;;;;;;;;;26.09;31.13;99772.38;5033798;28;20104;-74
2022/06/20 08:08:34;;;;;;;;;;;;;;;26.08;30.87;99776.25;5036666;28;19953;-72
2022/06/20 08:11:01;;;;;;;;;;;;;;;26.12;31.22;99773.69;5032552;28;19921;-70
2022/06/20 08:13:32;;;;;;;;;;;;;;;26.11;31.09;99778.34;5015947;28;19924;-72
2022/06/20 08:16:14;;;;;;;;;;;;;;;26.12;31.06;99774.50;5032334;28;19924;-73
2022/06/20 08:18:39;;;;;;;;;;;;;;;26.13;31.01;99776.13;5033225;28;19931;-72
2022/06/20 08:21:10;;;;;;;;;;;;;;;26.16;31.02;99775.50;5034324;28;19957;-73
2022/06/20 08:23:40;;;;;;;;;;;;;;;26.18;30.87;99780.66;5036303;28;19925;-73
2022/06/20 08:26:07;;;;;;;;;;;;;;;26.16;30.90;99777.44;5032644;28;19917;-73
2022/06/20 08:28:40;;;;;;;;;;;;;;;26.18;30.93;99786.13;5020117;28;19964;-73
2022/06/20 08:31:09;;;;;;;;;;;;;;;26.16;31.05;99777.44;5077907;28;19920;-72
2022/06/20 08:33:34;;;;;;;;;;;;;;;26.17;31.03;99782.59;5076707;28;19916;-73
2022/06/20 08:36:05;;;;;;;;;;;;;;;26.18;30.87;99784.25;5094892;28;19928;-73
2022/06/20 08:38:36;;;;;;;;;;;;;;;26.22;30.71;99789.91;5076292;28;19970;-72
2022/06/20 08:41:10;;;;;;;;;;;;;;;26.24;30.67;99798.63;5094753;28;19920;-72
2022/06/20 08:43:42;;;;;;;;;;;;;;;26.20;30.66;99792.94;5076345;28;19958;-72
2022/06/20 08:46:10;;;;;;;;;;;;;;;26.22;30.56;99796.19;5094370;28;19970;-70
2022/06/20 08:48:45;;;;;;;;;;;;;;;26.25;30.60;99800.25;5094248;28;20370;-70
2022/06/20 08:51:13;;;;;;;;;;;;;;;26.22;30.41;99796.19;5094456;28;20285;-69
2022/06/20 08:53:44;;;;;;;;;;;;;;;26.25;30.48;99800.25;5094303;28;19995;-70
2022/06/20 08:56:11;;;;;;;;;;;;;;;26.25;30.45;99803.00;5094154;28;19978;-70
2022/06/20 08:58:58;;;;;;;;;;;;;;;26.25;30.51;99800.25;5093894;28;19942;-70
2022/06/20 09:01:23;;;;;;;;;;;;;;;26.28;30.27;99804.28;5093993;28;20358;-70
2022/06/20 09:03:58;;;;;;;;;;;;;;;26.27;30.43;99810.88;5094400;28;19920;-70
2022/06/20 09:06:29;;;;;;;;;;;;;;;26.25;30.20;99803.00;5093942;28;20007;-70
2022/06/20 09:08:54;;;;;;;;;;;;;;;26.25;30.28;99811.22;5093685;28;20350;-70
2022/06/20 09:11:22;;;;;;;;;;;;;;;26.23;30.04;99808.78;5094344;28;19924;-69
2022/06/20 09:13:53;;;;;;;;;;;;;;;26.27;29.99;99808.13;5094687;28;20270;-71
2022/06/20 09:16:37;;;;;;;;;;;;;;;26.27;29.93;99813.63;5093967;28;20082;-70
2022/06/20 09:19:13;;;;;;;;;;;;;;;26.27;30.01;99819.94;5093690;28;19917;-71
2022/06/20 09:21:41;;;;;;;;;;;;;;;26.29;29.79;99811.41;5093993;28;19936;-71
2022/06/20 09:24:22;;;;;;;;;;;;;;;26.31;29.93;99820.13;5093922;28;19916;-71
2022/06/20 09:26:50;;;;;;;;;;;;;;;26.30;29.99;99821.22;5076007;28;19916;-70
2022/06/20 09:29:21;;;;;;;;;;;;;;;26.29;29.86;99817.69;5093819;28;19920;-70
2022/06/20 09:32:06;;;;;;;;;;;;;;;26.31;29.90;99825.59;5093450;28;19927;-69
2022/06/20 09:34:31;;;;;;;;;;;;;;;26.30;29.94;99829.44;5093487;28;20427;-69
2022/06/20 09:37:08;;;;;;;;;;;;;;;26.34;29.86;99827.72;5093381;28;19920;-68
2022/06/20 09:39:39;;;;;;;;;;;;;;;26.33;29.71;99824.16;5090868;28;19958;-70
2022/06/20 09:42:24;;;;;;;;;;;;;;;26.36;29.81;99829.03;5093543;28;19920;-70
2022/06/20 09:45:05;;;;;;;;;;;;;;;26.32;29.71;99825.28;5075403;28;20270;-69
2022/06/20 09:47:36;;;;;;;;;;;;;;;26.32;29.69;99827.19;5093133;28;19924;-70
2022/06/20 09:50:01;;;;;;;;;;;;;;;26.33;29.85;99832.38;5093521;28;19916;-69
2022/06/20 09:52:31;;;;;;;;;;;;;;;26.41;29.58;99828.91;5093642;28;20342;-69
2022/06/20 09:55:02;;;;;;;;;;;;;;;26.43;29.47;99834.09;5076284;28;19916;-70
2022/06/20 09:57:32;;;;;;;;;;;;;;;26.39;29.76;99831.16;5075442;28;20362;-70
2022/06/20 10:00:02;;;;;;;;;;;;;;;26.40;29.77;99830.03;5076375;28;20036;-69
2022/06/20 10:02:36;;;;;;;;;;;;;;;26.40;29.75;99837.44;5075724;28;19923;-69
2022/06/20 10:05:04;;;;;;;;;;;;;;;26.41;29.86;99839.88;5093309;28;19916;-70
2022/06/20 10:07:36;;;;;;;;;;;;;;;26.36;29.71;99831.78;5097626;28;19927;-69
2022/06/20 10:10:20;;;;;;;;;;;;;;;26.42;29.73;99833.28;5097697;28;19972;-69
2022/06/20 10:13:03;;;;;;;;;;;;;;;26.43;29.78;99834.91;5098011;28;19917;-69
2022/06/20 10:15:38;;;;;;;;;;;;;;;26.38;29.67;99837.75;5097243;28;20014;-70
2022/06/20 10:18:09;;;;;;;;;;;;;;;26.36;29.55;99842.72;5096704;28;19981;-69
2022/06/20 10:20:46;;;;;;;;;;;;;;;26.39;29.68;99844.84;5097213;28;19916;-71
2022/06/20 10:23:27;;;;;;;;;;;;;;;26.43;29.49;99840.38;5078490;28;19943;-69
2022/06/20 10:26:05;;;;;;;;;;;;;;;26.42;29.55;99838.78;5078517;28;19973;-69
2022/06/20 10:28:40;;;;;;;;;;;;;;;26.42;29.65;99838.78;5097066;28;20373;-69
2022/06/20 10:31:16;;;;;;;;;;;;;;;26.45;29.45;99836.53;5078427;28;19920;-69
2022/06/20 10:33:47;;;;;;;;;;;;;;;26.43;29.58;99837.63;5078564;28;19915;-69
2022/06/20 10:36:15;;;;;;;;;;;;;;;26.46;29.32;99832.66;5096878;28;19916;-70
2022/06/20 10:38:41;;;;;;;;;;;;;;;26.48;29.40;99838.66;5096428;28;20347;-69
2022/06/20 10:41:16;;;;;;;;;;;;;;;26.51;29.31;99844.34;5078253;28;19916;-67
2022/06/20 10:43:43;;;;;;;;;;;;;;;26.52;29.10;99847.88;5096466;28;19919;-69
2022/06/20 10:46:10;;;;;;;;;;;;;;;26.51;29.08;99840.75;5097388;28;19943;-70
2022/06/20 10:48:54;;;;;;;;;;;;;;;26.50;29.24;99834.47;5097111;28;19984;-69
2022/06/20 10:51:19;;;;;;;;;;;;;;;26.50;29.10;99831.75;5078984;28;19973;-68
2022/06/20 10:53:48;;;;;;;;;;;;;;;26.54;28.98;99826.47;5097914;28;19919;-68
2022/06/20 10:56:22;;;;;;;;;;;;;;;26.57;29.13;99831.31;5099142;28;19916;-68
2022/06/20 10:58:53;;;;;;;;;;;;;;;26.55;29.09;99828.09;5080955;28;19920;-68
2022/06/20 11:01:24;;;;;;;;;;;;;;;26.53;29.15;99828.41;5097336;28;20008;-69
2022/06/20 11:04:08;;;;;;;;;;;;;;;26.54;29.15;99829.19;5096912;28;20021;-69
2022/06/20 11:06:42;;;;;;;;;;;;;;;26.55;28.95;99830.84;5096099;28;19920;-69
2022/06/20 11:09:08;;;;;;;;;;;;;;;26.58;28.83;99825.53;5095914;28;20015;-69
2022/06/20 11:11:52;;;;;;;;;;;;;;;26.64;28.78;99829.00;5096423;28;19916;-69
2022/06/20 11:14:22;;;;;;;;;;;;;;;26.64;28.83;99829.00;5096277;28;19944;-69
2022/06/20 11:16:53;;;;;;;;;;;;;;;26.61;28.74;99826.84;5096032;28;20366;-69
2022/06/20 11:19:18;;;;;;;;;;;;;;;26.60;28.76;99822.50;5077916;28;19916;-69
2022/06/20 11:21:46;;;;;;;;;;;;;;;26.64;28.66;99829.00;5096465;28;19924;-69
2022/06/20 11:24:12;;;;;;;;;;;;;;;26.61;28.51;99829.56;5096212;28;19916;-69
2022/06/20 11:26:37;;;;;;;;;;;;;;;26.64;28.72;99823.53;5096669;28;20276;-69
2022/06/20 11:29:10;;;;;;;;;;;;;;;26.63;28.61;99821.09;5096301;28;20385;-68
2022/06/20 11:31:38;;;;;;;;;;;;;;;26.62;28.79;99820.28;5078069;28;19939;-69
2022/06/20 11:34:09;;;;;;;;;;;;;;;26.69;28.32;99819.84;5078034;28;20011;-69
2022/06/20 11:36:37;;;;;;;;;;;;;;;26.71;28.29;99818.41;5096461;28;19916;-69
2022/06/20 11:39:03;;;;;;;;;;;;;;;26.65;28.39;99819.66;5096225;28;20286;-69
2022/06/20 11:41:30;;;;;;;;;;;;;;;26.68;28.55;99824.53;5095733;28;19923;-68
2022/06/20 11:44:06;;;;;;;;;;;;;;;26.69;28.27;99823.41;5077895;28;19916;-69
2022/06/20 11:46:31;;;;;;;;;;;;;;;26.75;28.30;99813.13;5095835;28;19972;-69
2022/06/20 11:49:00;;;;;;;;;;;;;;;26.76;28.03;99810.06;5096057;28;19916;-69
2022/06/20 11:51:25;;;;;;;;;;;;;;;26.75;28.03;99824.91;5095950;28;19916;-68
2022/06/20 11:53:54;;;;;;;;;;;;;;;26.76;27.65;99804.59;5095891;28;20006;-67
2022/06/20 11:56:19;;;;;;;;;;;;;;;26.74;27.66;99808.78;5095838;28;19920;-70
2022/06/20 11:59:23;;;;;;;;;;;;;;;26.75;27.51;99813.97;5095358;28;20377;-69
2022/06/20 12:02:08;;;;;;;;;;;;;;;26.76;27.49;99814.75;5033100;28;19917;-69
2022/06/20 12:04:41;;;;;;;;;;;;;;;26.78;27.18;99810.56;5016686;28;19917;-69
2022/06/20 12:07:10;;;;;;;;;;;;;;;26.77;27.11;99808.16;5016895;28;20011;-68
2022/06/20 12:09:40;;;;;;;;;;;;;;;26.76;27.24;99796.38;5010357;28;19979;-69
2022/06/20 12:12:08;;;;;;;;;;;;;;;26.70;27.24;99800.38;4996795;28;19925;-69
2022/06/20 12:14:36;;;;;;;;;;;;;;;26.71;27.08;99806.66;5013104;28;19925;-70
2022/06/20 12:17:04;;;;;;;;;;;;;;;26.74;27.27;99798.63;5013414;28;19917;-69
2022/06/20 12:25:18;;;;;;;;;;;;;;;26.81;27.36;99800.13;5013286;28;19925;-70
2022/06/20 12:27:46;;;;;;;;;;;;;;;26.82;27.21;99805.31;5012715;28;20308;-70
2022/06/20 12:30:12;;;;;;;;;;;;;;;26.85;27.22;99801.13;5011771;28;19929;-70
2022/06/20 12:32:38;;;;;;;;;;;;;;;26.86;27.18;99791.78;5056453;28;19920;-70
2022/06/20 12:35:05;;;;;;;;;;;;;;;26.91;27.11;99799.88;5077117;28;20011;-70
2022/06/20 12:37:39;;;;;;;;;;;;;;;26.89;26.84;99805.69;5095478;28;19916;-69
2022/06/20 12:40:08;;;;;;;;;;;;;;;26.83;26.99;99797.88;5094266;28;19920;-69
2022/06/20 12:42:46;;;;;;;;;;;;;;;26.81;26.92;99800.94;5094693;28;19939;-69
2022/06/20 12:45:30;;;;;;;;;;;;;;;26.78;27.28;99801.53;5076706;28;19920;-69
2022/06/20 12:48:15;;;;;;;;;;;;;;;26.77;27.09;99789.78;5094556;28;20439;-71
2022/06/20 12:50:46;;;;;;;;;;;;;;;26.81;27.01;99783.69;5059168;28;19916;-69
2022/06/20 12:53:30;;;;;;;;;;;;;;;26.81;27.07;99783.69;5076442;28;19985;-68
2022/06/20 12:56:01;;;;;;;;;;;;;;;26.81;27.18;99789.97;5094546;28;19916;-69
2022/06/20 12:58:41;;;;;;;;;;;;;;;26.81;27.12;99792.69;5076407;28;19923;-69
2022/06/20 13:01:25;;;;;;;;;;;;;;;26.79;27.27;99787.53;5094790;28;19916;-69
2022/06/20 13:03:56;;;;;;;;;;;;;;;26.79;27.15;99784.00;5094153;28;19935;-70
2022/06/20 13:06:40;;;;;;;;;;;;;;;26.78;26.94;99787.84;5094619;28;20007;-70
2022/06/20 13:09:20;;;;;;;;;;;;;;;26.72;26.77;99786.34;5094159;28;20385;-69
2022/06/20 13:11:45;;;;;;;;;;;;;;;26.66;27.05;99787.59;5094406;28;19922;-68
2022/06/20 13:14:17;;;;;;;;;;;;;;;26.61;27.05;99778.34;5094196;28;20003;-68
2022/06/20 13:16:51;;;;;;;;;;;;;;;26.56;26.90;99775.72;5075944;28;19916;-68
2022/06/20 13:19:28;;;;;;;;;;;;;;;26.54;26.90;99775.19;5093732;28;19934;-69